Main page
METAR-TAF:

METAR-TAF

Airports :

Southampton, England

Southampton Airport

latitude: 50-54N, longitude: 001-24W, elevation: 9 m

Current weather observation

The report was made 24 minutes ago, at 06:50 UTC
Wind 5 kt from the East/Southeast, varying between East and Southeast
Temperature 17°C
Humidity 68%
Pressure 1018 hPa
Visibility 10 km or more
no clouds below 1500 m and no cumulonimbus

METAR: EGHI 260650Z 11005KT 080V140 CAVOK 17/11 Q1018

Time: 08:14 (07:14 UTC)

Forecast

The report was made 1 hour and 50 minutes ago, at 05:24 UTC
Forecast valid from 26 at 06 UTC to 26 at 15 UTC
Wind 3 kt from variable directions
Visibility 10 km or more
no clouds below 1500 m and no cumulonimbus
Becoming
from 26 at 06 UTC to 26 at 09 UTC
Wind 12 kt from the East/Southeast

TAF: EGHI 260524Z 2606/2615 VRB03KT CAVOK BECMG 2606/2609 12012KT

Weather observations and forecasts of more than 4000 airports (METAR and TAF reports).

The available stations are represented by yellow and red dots on the map.

Hover mouse over dot to see the name of the station.

Then click to see weather observations and forecasts.

To change the map : click on the green buttons with a black cross to zoom in, on the green button with a dash to zoom out, or on the green arrows for adjacent maps.


METAR-TAF: